Time;durP1;ratioP1;P1;durP2;ratioP2;P2;SDS_P1;SDS_P2;PMS_P1;PMS_P2;Temp;Humidity;BMP_temperature;BMP_pressure;BME280_temperature;BME280_humidity;BME280_pressure;Samples;Min_cycle;Max_cycle;Signal;HPM_P1;HPM_P2
2022/03/20 00:00:13;;;;;;;25.13;13.53;;;3.00;18.10;;;;;;5105420;28;20258;-71
2022/03/20 00:02:40;;;;;;;25.50;14.10;;;3.00;1.00;;;;;;5098679;28;20223;-71
2022/03/20 00:05:10;;;;;;;25.57;14.93;;;2.90;1.00;;;;;;5106442;28;20211;-71
2022/03/20 00:07:38;;;;;;;25.57;13.07;;;2.70;1.00;;;;;;5105462;28;20678;-71
2022/03/20 00:10:07;;;;;;;27.57;14.73;;;2.60;1.00;;;;;;5107416;28;20221;-71
2022/03/20 00:12:35;;;;;;;30.37;14.60;;;2.70;99.90;;;;;;5103939;28;20395;-71
2022/03/20 00:15:03;;;;;;;24.43;14.07;;;2.80;99.90;;;;;;5101913;28;20202;-71
2022/03/20 00:17:30;;;;;;;27.37;13.37;;;2.70;99.90;;;;;;5100844;28;20266;-71
2022/03/20 00:19:57;;;;;;;30.50;14.97;;;2.70;99.90;;;;;;5108539;27;20190;-71
2022/03/20 00:22:26;;;;;;;28.67;13.70;;;2.70;24.50;;;;;;5105987;28;20202;-70
2022/03/20 00:24:53;;;;;;;25.73;14.43;;;2.70;1.00;;;;;;5100538;28;20197;-71
2022/03/20 00:27:20;;;;;;;25.87;12.77;;;2.70;1.00;;;;;;5112171;28;20200;-71
2022/03/20 00:29:47;;;;;;;24.80;12.70;;;2.60;1.00;;;;;;5112154;28;20309;-71
2022/03/20 00:32:14;;;;;;;26.07;11.83;;;2.60;1.00;;;;;;5110996;28;20200;-71
2022/03/20 00:34:42;;;;;;;26.30;12.80;;;2.60;1.00;;;;;;5111246;28;20193;-71
2022/03/20 00:37:09;;;;;;;22.00;12.13;;;2.50;99.90;;;;;;5103352;28;20208;-70
2022/03/20 00:39:38;;;;;;;27.90;13.67;;;2.50;1.00;;;;;;5098582;28;20185;-71
2022/03/20 00:42:06;;;;;;;26.70;12.47;;;2.40;2.90;;;;;;5111260;28;20205;-71
2022/03/20 00:44:32;;;;;;;23.50;11.70;;;2.40;99.90;;;;;;5112575;28;20205;-71
2022/03/20 00:46:59;;;;;;;26.80;12.20;;;2.40;1.00;;;;;;5111577;28;20379;-71
2022/03/20 00:49:26;;;;;;;29.70;12.87;;;2.60;99.90;;;;;;5112950;28;20224;-71
2022/03/20 00:51:53;;;;;;;23.10;11.93;;;2.50;1.00;;;;;;5104746;28;20208;-71
2022/03/20 00:54:20;;;;;;;23.13;12.57;;;2.50;99.90;;;;;;5110476;28;20449;-70
2022/03/20 00:56:48;;;;;;;24.80;13.47;;;2.40;1.00;;;;;;5110692;28;20219;-70
2022/03/20 00:59:15;;;;;;;26.43;14.40;;;2.40;99.90;;;;;;5110960;28;20197;-71
2022/03/20 01:01:42;;;;;;;25.47;12.77;;;2.40;99.90;;;;;;5111046;28;20643;-71
2022/03/20 01:04:09;;;;;;;22.00;11.27;;;2.50;99.90;;;;;;5109318;28;20288;-71
2022/03/20 01:06:36;;;;;;;22.37;11.67;;;2.50;99.90;;;;;;5101983;28;20568;-71
2022/03/20 01:09:05;;;;;;;26.27;13.07;;;2.60;1.00;;;;;;5106386;28;20216;-71
2022/03/20 01:11:32;;;;;;;23.47;12.53;;;2.50;1.00;;;;;;5099912;28;20206;-71
2022/03/20 01:14:01;;;;;;;22.47;12.53;;;2.60;1.00;;;;;;5096100;28;20201;-71
2022/03/20 01:16:27;;;;;;;24.37;13.63;;;2.60;1.00;;;;;;5093971;28;20201;-70
2022/03/20 01:18:54;;;;;;;25.40;13.03;;;2.60;1.00;;;;;;5094006;28;20201;-71
2022/03/20 01:21:21;;;;;;;25.37;12.50;;;2.60;1.00;;;;;;5105933;28;20193;-71
2022/03/20 01:23:48;;;;;;;24.87;12.87;;;2.50;1.00;;;;;;5110816;28;20860;-71
2022/03/20 01:26:15;;;;;;;29.63;12.60;;;2.50;1.00;;;;;;5111109;28;20224;-71
2022/03/20 01:28:42;;;;;;;24.97;12.50;;;2.60;1.00;;;;;;5110727;28;20566;-71
2022/03/20 01:31:10;;;;;;;27.77;12.53;;;2.60;99.90;;;;;;5111225;28;20231;-71
2022/03/20 01:33:38;;;;;;;25.17;13.03;;;2.60;99.90;;;;;;5105395;28;20208;-70
2022/03/20 01:36:05;;;;;;;26.87;13.13;;;2.50;1.00;;;;;;5111123;28;20665;-71
2022/03/20 01:38:32;;;;;;;22.67;12.33;;;2.40;1.00;;;;;;5110559;28;20857;-71
2022/03/20 01:41:01;;;;;;;23.83;12.33;;;2.30;1.00;;;;;;5110901;28;20539;-71
2022/03/20 01:43:28;;;;;;;27.27;14.07;;;2.30;1.00;;;;;;5107019;28;20286;-71
2022/03/20 01:45:55;;;;;;;30.50;12.87;;;2.20;95.60;;;;;;5111422;28;20193;-71
2022/03/20 01:48:23;;;;;;;29.33;14.50;;;2.20;1.00;;;;;;5093801;28;20193;-71
2022/03/20 01:50:50;;;;;;;23.17;11.87;;;2.20;1.00;;;;;;5110813;28;20217;-71
2022/03/20 01:53:19;;;;;;;26.20;13.20;;;2.20;1.00;;;;;;5111470;28;20205;-70
2022/03/20 01:55:46;;;;;;;33.97;17.47;;;2.30;1.00;;;;;;5104955;28;20202;-70
2022/03/20 01:58:16;;;;;;;22.70;12.70;;;2.20;1.00;;;;;;5105221;28;20656;-70
2022/03/20 02:00:44;;;;;;;25.30;12.73;;;2.20;1.00;;;;;;5105154;28;20202;-71
2022/03/20 02:03:11;;;;;;;21.63;10.43;;;2.10;1.00;;;;;;5106207;28;20197;-71
2022/03/20 02:05:39;;;;;;;26.07;13.53;;;2.20;1.00;;;;;;5111915;28;20212;-71
2022/03/20 02:08:06;;;;;;;27.70;14.20;;;2.00;1.00;;;;;;5111512;28;20209;-70
2022/03/20 02:10:36;;;;;;;28.13;15.73;;;2.20;1.00;;;;;;5115065;28;20221;-71
2022/03/20 02:13:03;;;;;;;28.17;15.57;;;2.10;1.00;;;;;;5102912;28;20202;-71
2022/03/20 02:15:30;;;;;;;26.17;12.73;;;2.00;1.00;;;;;;5107625;28;20205;-71
2022/03/20 02:17:58;;;;;;;28.37;14.33;;;2.20;99.90;;;;;;5113749;28;20640;-71
2022/03/20 02:20:24;;;;;;;27.60;13.43;;;2.10;1.00;;;;;;5113771;28;21806;-68
2022/03/20 02:22:53;;;;;;;29.03;14.53;;;2.10;99.90;;;;;;5110128;28;20730;-71
2022/03/20 02:25:21;;;;;;;27.97;15.53;;;2.00;1.00;;;;;;5114272;28;20205;-71
2022/03/20 02:27:48;;;;;;;26.83;14.50;;;2.00;1.00;;;;;;5113159;28;20193;-71
2022/03/20 02:30:18;;;;;;;30.43;17.43;;;2.00;99.90;;;;;;5114301;28;20304;-71
2022/03/20 02:32:46;;;;;;;33.80;17.27;;;1.80;1.00;;;;;;5113785;28;20708;-71
2022/03/20 02:35:15;;;;;;;30.83;16.50;;;1.80;1.00;;;;;;5114430;28;20650;-71
2022/03/20 02:37:43;;;;;;;29.23;16.33;;;1.80;99.90;;;;;;5113743;28;20196;-71
2022/03/20 02:40:13;;;;;;;36.53;18.50;;;1.80;99.90;;;;;;5114562;28;20640;-71
2022/03/20 02:42:41;;;;;;;30.83;17.27;;;1.70;1.00;;;;;;5102269;28;20210;-71
2022/03/20 02:45:10;;;;;;;28.70;17.40;;;1.60;1.00;;;;;;5103145;28;20702;-71
2022/03/20 02:47:39;;;;;;;29.80;17.53;;;1.60;1.00;;;;;;5113211;28;20201;-71
2022/03/20 02:50:08;;;;;;;30.10;17.70;;;1.60;1.00;;;;;;5113448;28;20735;-71
2022/03/20 02:52:45;;;;;;;28.50;16.73;;;1.50;99.90;;;;;;5113373;28;20201;-71
2022/03/20 02:55:15;;;;;;;31.30;16.50;;;1.50;1.00;;;;;;5113651;28;20197;-71
2022/03/20 02:57:42;;;;;;;33.07;16.87;;;1.60;1.00;;;;;;5102526;28;20681;-71
2022/03/20 03:00:10;;;;;;;32.13;17.40;;;1.60;60.50;;;;;;5104393;28;20196;-71
2022/03/20 03:02:42;;;;;;;29.77;16.60;;;1.60;65.30;;;;;;5113415;28;20640;-71
2022/03/20 03:05:10;;;;;;;28.60;16.40;;;1.60;99.90;;;;;;5114407;28;20195;-71
2022/03/20 03:10:55;;;;;;;28.80;16.47;;;1.60;1.90;;;;;;5103545;28;20202;-71
2022/03/20 03:13:10;;;;;;;32.30;17.60;;;1.50;47.40;;;;;;5111366;28;20301;-71
2022/03/20 03:15:37;;;;;;;29.73;16.37;;;1.40;99.90;;;;;;5113714;28;20197;-71
2022/03/20 03:18:04;;;;;;;32.87;17.10;;;1.40;99.90;;;;;;5100436;28;20208;-71
2022/03/20 03:20:31;;;;;;;30.47;16.83;;;1.30;99.90;;;;;;5112106;28;20201;-71
2022/03/20 03:23:00;;;;;;;26.90;15.97;;;1.30;1.00;;;;;;5112070;28;20224;-71
2022/03/20 03:25:28;;;;;;;28.60;16.70;;;1.20;1.00;;;;;;5113806;28;20207;-71
2022/03/20 03:27:55;;;;;;;34.20;17.20;;;1.30;99.90;;;;;;5113243;28;20199;-71
2022/03/20 03:30:22;;;;;;;31.80;16.10;;;1.30;1.00;;;;;;5105691;28;20228;-71
2022/03/20 03:32:49;;;;;;;30.43;15.70;;;1.30;99.90;;;;;;5109091;28;20193;-71
2022/03/20 03:38:01;;;;;;;33.30;17.53;;;1.40;1.00;;;;;;5107575;28;20204;-71
2022/03/20 03:40:30;;;;;;;27.37;14.83;;;1.40;1.00;;;;;;5113215;28;20185;-71
2022/03/20 03:42:59;;;;;;;29.53;15.33;;;1.40;1.00;;;;;;5112042;27;20209;-71
2022/03/20 03:45:26;;;;;;;28.67;15.23;;;1.60;99.90;;;;;;5112641;28;20201;-71
2022/03/20 03:47:53;;;;;;;29.90;15.33;;;1.50;99.90;;;;;;5104872;28;20201;-71
2022/03/20 03:50:21;;;;;;;27.20;14.80;;;1.50;99.90;;;;;;5113032;28;20540;-71
2022/03/20 03:52:48;;;;;;;30.83;16.10;;;1.60;1.00;;;;;;5112337;28;20666;-71
2022/03/20 03:55:15;;;;;;;26.00;13.40;;;1.60;1.00;;;;;;5112831;28;20197;-70
2022/03/20 03:57:48;;;;;;;28.87;14.63;;;1.70;1.00;;;;;;5099233;28;20202;-71
2022/03/20 04:00:16;;;;;;;26.00;12.90;;;1.60;1.00;;;;;;5110479;28;20678;-70
2022/03/20 04:02:43;;;;;;;27.57;14.40;;;1.70;1.00;;;;;;5112004;28;20201;-71
2022/03/20 04:05:10;;;;;;;24.93;13.27;;;1.70;1.00;;;;;;5113622;28;20682;-70
2022/03/20 04:07:38;;;;;;;27.10;15.07;;;1.60;1.00;;;;;;5101263;28;20213;-71
2022/03/20 04:10:06;;;;;;;23.57;11.77;;;1.60;1.00;;;;;;5111185;28;20655;-70
2022/03/20 04:12:37;;;;;;;26.70;14.33;;;1.70;1.00;;;;;;5112702;28;20763;-70
2022/03/20 04:15:06;;;;;;;26.50;12.97;;;1.50;1.00;;;;;;5111949;28;20189;-71
2022/03/20 04:17:33;;;;;;;29.93;13.87;;;1.70;1.00;;;;;;5100527;28;20641;-71
2022/03/20 04:20:01;;;;;;;17.90;9.10;;;1.80;99.90;;;;;;5100367;28;20215;-71
2022/03/20 04:22:29;;;;;;;28.13;14.83;;;1.80;99.90;;;;;;5105512;28;20205;-71
2022/03/20 04:24:56;;;;;;;24.83;12.23;;;1.70;1.00;;;;;;5106708;28;20200;-71
2022/03/20 04:27:23;;;;;;;26.53;12.53;;;1.70;1.00;;;;;;5111546;28;20663;-70
2022/03/20 04:29:50;;;;;;;25.20;12.90;;;1.70;99.90;;;;;;5111124;28;20269;-71
2022/03/20 04:32:19;;;;;;;29.60;14.10;;;1.70;99.90;;;;;;5109272;28;20284;-71
2022/03/20 04:34:45;;;;;;;26.13;14.17;;;1.80;99.90;;;;;;5112972;28;20200;-71
2022/03/20 04:37:13;;;;;;;25.43;13.13;;;1.80;99.90;;;;;;5111713;28;20211;-71
2022/03/20 04:39:40;;;;;;;25.17;11.70;;;1.70;99.90;;;;;;5094011;28;20216;-71
2022/03/20 04:42:09;;;;;;;24.57;11.80;;;1.70;99.90;;;;;;5107951;28;20200;-71
2022/03/20 04:44:38;;;;;;;27.23;11.90;;;1.60;99.90;;;;;;5112081;28;20212;-70
2022/03/20 04:47:06;;;;;;;28.03;13.50;;;1.60;99.90;;;;;;5111774;28;20280;-71
2022/03/20 05:00:32;;;;;;;27.20;15.03;;;1.50;99.90;;;;;;5097623;28;20250;-71
2022/03/20 05:02:59;;;;;;;25.47;12.63;;;1.50;99.90;;;;;;5111122;28;20188;-71
2022/03/20 05:05:28;;;;;;;27.03;12.93;;;1.60;99.90;;;;;;5111710;28;20212;-70
2022/03/20 05:07:55;;;;;;;28.03;14.50;;;1.70;9.00;;;;;;5097307;28;20201;-70
2022/03/20 05:13:21;;;;;;;32.90;14.70;;;1.60;99.90;;;;;;5104630;28;20199;-70
2022/03/20 05:15:48;;;;;;;30.40;16.07;;;1.60;99.90;;;;;;5093020;28;20231;-70
2022/03/20 05:18:15;;;;;;;26.70;12.90;;;1.30;1.00;;;;;;5100578;28;20206;-71
2022/03/20 05:20:44;;;;;;;25.03;12.77;;;1.40;99.90;;;;;;5097311;28;20201;-71
2022/03/20 05:23:11;;;;;;;28.17;15.00;;;1.50;99.90;;;;;;5108265;28;20201;-71
2022/03/20 05:25:39;;;;;;;24.13;13.30;;;1.40;99.90;;;;;;5108072;28;20205;-70
2022/03/20 05:28:06;;;;;;;24.57;12.10;;;1.30;99.90;;;;;;5105749;28;20197;-70
2022/03/20 05:30:34;;;;;;;25.90;13.83;;;1.30;99.90;;;;;;5098508;28;20221;-70
2022/03/20 05:33:01;;;;;;;22.87;11.50;;;1.10;1.00;;;;;;5106188;28;20209;-71
2022/03/20 05:35:29;;;;;;;27.63;12.87;;;1.30;99.90;;;;;;5101360;28;20209;-70
2022/03/20 05:37:57;;;;;;;20.20;9.27;;;1.20;1.00;;;;;;5097842;28;20201;-70
2022/03/20 05:40:23;;;;;;;22.83;10.17;;;1.30;99.90;;;;;;5101106;28;20659;-71
2022/03/20 05:42:51;;;;;;;22.93;9.37;;;1.30;1.00;;;;;;5108936;28;20219;-70
2022/03/20 05:45:18;;;;;;;24.97;11.07;;;1.40;99.90;;;;;;5109242;28;20304;-70
2022/03/20 05:47:44;;;;;;;18.70;8.73;;;1.50;99.90;;;;;;5102052;28;20201;-70
2022/03/20 05:50:12;;;;;;;25.40;12.87;;;1.40;99.90;;;;;;5105932;28;20200;-71
2022/03/20 05:52:38;;;;;;;24.43;10.20;;;1.50;99.90;;;;;;5104667;28;20297;-68
2022/03/20 05:55:08;;;;;;;27.60;12.73;;;1.50;99.90;;;;;;5110286;28;20197;-68
2022/03/20 06:00:24;;;;;;;18.80;9.63;;;1.60;1.00;;;;;;5108124;28;20213;-68
2022/03/20 06:02:51;;;;;;;21.13;10.37;;;1.60;99.90;;;;;;5106991;28;20212;-68
2022/03/20 06:05:18;;;;;;;19.47;9.93;;;1.70;99.90;;;;;;5108732;28;20201;-69
2022/03/20 06:07:46;;;;;;;24.70;11.40;;;1.80;99.90;;;;;;5105716;28;20201;-68
2022/03/20 06:10:16;;;;;;;20.10;10.23;;;1.90;1.00;;;;;;5106349;28;20209;-68
2022/03/20 06:12:43;;;;;;;19.97;10.87;;;1.90;1.00;;;;;;5101622;28;20197;-68
2022/03/20 06:15:12;;;;;;;23.97;11.23;;;1.90;1.00;;;;;;5105292;28;20220;-68
2022/03/20 06:17:41;;;;;;;25.73;12.33;;;2.00;1.00;;;;;;5106886;28;20678;-68
2022/03/20 06:20:10;;;;;;;25.93;14.17;;;2.00;1.00;;;;;;5105469;28;20300;-68
2022/03/20 06:22:37;;;;;;;25.00;13.23;;;2.00;1.00;;;;;;5102850;28;20666;-68
2022/03/20 06:25:07;;;;;;;24.33;12.27;;;2.10;1.00;;;;;;5104776;28;20198;-68
2022/03/20 06:27:46;;;;;;;26.50;11.93;;;2.10;1.00;;;;;;5108706;28;20208;-69
2022/03/20 06:30:14;;;;;;;25.47;13.03;;;2.20;1.00;;;;;;5102896;28;20205;-68
2022/03/20 06:32:41;;;;;;;26.27;14.47;;;2.20;1.00;;;;;;5106575;28;20590;-68
2022/03/20 06:35:10;;;;;;;27.47;12.20;;;2.40;1.00;;;;;;5106993;28;20208;-68
2022/03/20 06:37:38;;;;;;;32.00;15.13;;;2.50;1.00;;;;;;5111532;28;20731;-69
2022/03/20 06:40:06;;;;;;;29.97;14.80;;;2.50;1.00;;;;;;5105193;28;20211;-68
2022/03/20 06:42:33;;;;;;;30.43;13.70;;;2.70;1.00;;;;;;5104271;28;20208;-68
2022/03/20 06:45:03;;;;;;;28.23;15.17;;;2.70;1.00;;;;;;5103115;27;20196;-68
2022/03/20 06:47:32;;;;;;;27.87;14.43;;;2.80;1.00;;;;;;5106260;27;20201;-69
2022/03/20 06:49:59;;;;;;;25.63;14.37;;;2.90;1.00;;;;;;5109931;28;20283;-68
2022/03/20 06:52:28;;;;;;;22.17;11.93;;;2.90;1.00;;;;;;5104131;28;20217;-69
2022/03/20 06:54:57;;;;;;;20.63;10.73;;;2.90;1.00;;;;;;5110517;27;20200;-68
2022/03/20 06:57:25;;;;;;;20.60;10.43;;;3.00;99.90;;;;;;5101497;28;20259;-68
2022/03/20 06:59:53;;;;;;;25.03;12.97;;;3.10;47.80;;;;;;5115667;27;20205;-68
2022/03/20 07:02:21;;;;;;;23.83;13.33;;;3.20;54.20;;;;;;5106840;28;20637;-68
2022/03/20 07:04:48;;;;;;;32.30;15.77;;;3.20;20.60;;;;;;5107032;28;20202;-69
2022/03/20 07:07:16;;;;;;;24.03;11.63;;;3.30;92.50;;;;;;5104867;28;20208;-68
2022/03/20 07:09:43;;;;;;;26.83;13.03;;;3.30;1.00;;;;;;5107120;28;20255;-68
2022/03/20 07:12:11;;;;;;;27.47;15.43;;;3.40;2.10;;;;;;5106070;28;20216;-68
2022/03/20 07:14:38;;;;;;;29.50;14.67;;;3.50;1.00;;;;;;5104420;28;20208;-68
2022/03/20 07:17:07;;;;;;;28.33;13.87;;;4.10;1.00;;;;;;5102116;28;20218;-68
2022/03/20 07:19:37;;;;;;;29.90;15.20;;;4.00;1.00;;;;;;5108854;28;20214;-69
2022/03/20 07:22:04;;;;;;;27.77;14.27;;;3.80;1.00;;;;;;5109219;28;20193;-69
2022/03/20 07:24:32;;;;;;;23.40;12.37;;;3.90;1.00;;;;;;5105893;28;20204;-69
2022/03/20 07:29:44;;;;;;;30.30;15.07;;;3.80;1.00;;;;;;5106090;28;20213;-68
2022/03/20 07:32:11;;;;;;;26.83;15.27;;;4.30;1.00;;;;;;5110188;28;20589;-69
2022/03/20 07:34:40;;;;;;;28.43;15.47;;;3.90;1.00;;;;;;5100349;28;20208;-68
2022/03/20 07:37:07;;;;;;;28.77;15.80;;;4.00;1.00;;;;;;5096792;28;20212;-68
2022/03/20 07:39:35;;;;;;;29.63;16.50;;;4.40;1.00;;;;;;5110819;28;20201;-69
2022/03/20 07:42:02;;;;;;;22.07;11.93;;;4.50;1.00;;;;;;5107670;28;20212;-68
2022/03/20 07:44:31;;;;;;;24.37;12.87;;;4.50;1.00;;;;;;5117676;27;20219;-69
2022/03/20 07:46:58;;;;;;;31.60;16.80;;;4.60;1.00;;;;;;5116056;27;20205;-68
2022/03/20 07:49:26;;;;;;;20.67;10.43;;;5.30;1.00;;;;;;5101598;28;20211;-68
2022/03/20 07:51:57;;;;;;;27.07;15.30;;;5.20;1.00;;;;;;5106276;28;20209;-70
2022/03/20 07:54:24;;;;;;;26.60;14.80;;;5.50;1.00;;;;;;5105464;28;20644;-68
2022/03/20 07:56:51;;;;;;;27.50;14.13;;;5.20;1.00;;;;;;5106785;28;20197;-68
2022/03/20 07:59:18;;;;;;;28.80;14.63;;;4.90;1.00;;;;;;5107392;28;20208;-69
2022/03/20 08:01:45;;;;;;;28.90;16.43;;;5.20;1.00;;;;;;5106255;28;20204;-69
2022/03/20 08:04:11;;;;;;;25.87;13.47;;;5.20;1.00;;;;;;5110400;28;20661;-68
2022/03/20 08:06:38;;;;;;;26.87;14.50;;;4.80;1.00;;;;;;5106903;28;20227;-68
2022/03/20 08:09:07;;;;;;;28.50;17.10;;;4.90;1.00;;;;;;5112744;28;20628;-68
2022/03/20 08:11:33;;;;;;;28.27;15.73;;;5.10;1.00;;;;;;5112084;28;20576;-68
2022/03/20 08:14:00;;;;;;;28.47;15.83;;;5.60;1.00;;;;;;5119082;27;20199;-69
2022/03/20 08:16:27;;;;;;;29.13;16.67;;;5.20;1.00;;;;;;5107482;28;20222;-69
2022/03/20 08:18:56;;;;;;;28.30;16.80;;;5.70;1.00;;;;;;5092047;28;20205;-69
2022/03/20 08:21:24;;;;;;;23.50;13.43;;;5.90;1.00;;;;;;5095677;28;20201;-69
2022/03/20 08:23:51;;;;;;;25.57;15.17;;;5.70;1.00;;;;;;5109461;28;20196;-68
2022/03/20 08:26:19;;;;;;;29.63;16.33;;;5.60;1.00;;;;;;5113867;27;20295;-68
2022/03/20 08:28:46;;;;;;;30.77;16.67;;;5.80;1.00;;;;;;5133168;27;20546;-69
2022/03/20 08:31:13;;;;;;;31.13;14.93;;;5.80;1.00;;;;;;5117209;27;20571;-68
2022/03/20 08:33:41;;;;;;;25.00;15.17;;;5.60;1.00;;;;;;5109108;28;20200;-69
2022/03/20 08:36:09;;;;;;;29.47;16.60;;;5.50;1.00;;;;;;5108345;28;20197;-68
2022/03/20 08:38:36;;;;;;;27.73;15.87;;;5.60;1.00;;;;;;5111779;28;20242;-68
2022/03/20 08:41:03;;;;;;;25.60;12.33;;;5.70;1.00;;;;;;5111954;28;20185;-68
2022/03/20 08:43:31;;;;;;;28.93;17.43;;;5.80;1.00;;;;;;5095152;28;20215;-68
2022/03/20 08:45:58;;;;;;;28.63;15.60;;;6.00;1.00;;;;;;5107486;28;20198;-68
2022/03/20 08:48:25;;;;;;;28.60;17.83;;;6.10;1.00;;;;;;5097285;28;20288;-68
2022/03/20 08:50:52;;;;;;;28.13;16.73;;;6.30;1.00;;;;;;5107744;28;20197;-68
2022/03/20 08:53:20;;;;;;;28.40;16.93;;;6.50;1.00;;;;;;5097185;28;20226;-68
2022/03/20 08:55:48;;;;;;;29.40;15.70;;;6.30;1.00;;;;;;5101293;28;20664;-69
2022/03/20 08:58:15;;;;;;;29.33;16.77;;;6.30;1.00;;;;;;5100700;28;20212;-68
2022/03/20 09:00:44;;;;;;;31.13;18.10;;;6.40;1.00;;;;;;5103985;28;20197;-68
2022/03/20 09:03:12;;;;;;;31.77;17.93;;;6.60;1.00;;;;;;5103086;28;20224;-69
2022/03/20 09:05:39;;;;;;;29.00;14.47;;;6.90;1.00;;;;;;5106385;28;20232;-69
2022/03/20 09:08:06;;;;;;;25.10;13.73;;;6.80;1.00;;;;;;5108404;28;20276;-69
2022/03/20 09:10:34;;;;;;;26.83;15.40;;;6.80;1.00;;;;;;5100335;28;20205;-69
2022/03/20 09:13:01;;;;;;;24.67;14.27;;;6.70;1.00;;;;;;5095213;28;20260;-69
2022/03/20 09:15:31;;;;;;;29.40;17.57;;;6.90;1.00;;;;;;5106269;28;20251;-68
2022/03/20 09:20:45;;;;;;;27.90;15.23;;;7.20;1.00;;;;;;5105886;28;20247;-68
2022/03/20 09:23:14;;;;;;;28.80;18.17;;;7.40;1.00;;;;;;5105037;28;20201;-70
2022/03/20 09:25:41;;;;;;;27.00;15.53;;;7.50;1.00;;;;;;5104395;28;20201;-71
2022/03/20 09:28:09;;;;;;;29.23;17.57;;;7.70;1.00;;;;;;5112563;28;20676;-70
2022/03/20 09:30:39;;;;;;;27.73;17.33;;;8.00;1.00;;;;;;5105800;28;20215;-70
2022/03/20 09:33:09;;;;;;;24.97;15.73;;;8.10;1.00;;;;;;5108450;28;20636;-70
2022/03/20 09:35:37;;;;;;;27.70;17.03;;;7.80;1.00;;;;;;5098330;28;20205;-70
2022/03/20 09:38:07;;;;;;;31.07;15.47;;;8.20;1.00;;;;;;5108900;28;20197;-70
2022/03/20 09:40:35;;;;;;;26.07;17.20;;;8.20;1.00;;;;;;5106542;28;20212;-70
2022/03/20 09:43:02;;;;;;;24.40;13.17;;;8.60;1.00;;;;;;5106419;28;20207;-71
2022/03/20 09:45:30;;;;;;;28.23;14.97;;;8.60;1.00;;;;;;5106482;28;20211;-70
2022/03/20 09:47:58;;;;;;;27.73;17.03;;;8.40;1.00;;;;;;5109230;28;20627;-70
2022/03/20 09:50:26;;;;;;;27.57;16.63;;;8.50;1.00;;;;;;5109446;28;20243;-70
2022/03/20 09:52:53;;;;;;;29.07;17.17;;;8.90;1.00;;;;;;5101310;28;20671;-70
2022/03/20 09:55:20;;;;;;;26.43;15.97;;;9.00;1.00;;;;;;5105279;27;20208;-70
2022/03/20 09:57:47;;;;;;;28.57;15.93;;;9.00;1.00;;;;;;5104304;28;20221;-71
2022/03/20 10:00:16;;;;;;;29.30;17.07;;;9.00;1.00;;;;;;5107896;28;20723;-70
2022/03/20 10:02:43;;;;;;;28.13;16.80;;;9.10;1.00;;;;;;5108650;28;20212;-70
2022/03/20 10:05:11;;;;;;;23.80;14.27;;;9.20;1.00;;;;;;5108374;28;20200;-71
2022/03/20 10:07:43;;;;;;;27.67;16.07;;;9.20;1.00;;;;;;5103141;28;20205;-70
2022/03/20 10:10:17;;;;;;;27.20;16.37;;;9.60;1.00;;;;;;5111133;28;20711;-70
2022/03/20 10:12:49;;;;;;;27.17;13.53;;;9.40;1.00;;;;;;5106713;28;20228;-70
2022/03/20 10:15:30;;;;;;;26.97;17.00;;;9.50;1.00;;;;;;5106084;28;20204;-70
2022/03/20 10:18:11;;;;;;;26.67;15.20;;;9.60;1.00;;;;;;5109457;28;20562;-71
2022/03/20 10:20:44;;;;;;;25.80;15.13;;;9.70;1.00;;;;;;5105978;28;20201;-70
2022/03/20 10:23:32;;;;;;;25.50;15.80;;;9.90;1.00;;;;;;5109470;28;20303;-70
2022/03/20 10:26:03;;;;;;;22.47;12.77;;;10.00;1.00;;;;;;5106770;28;20655;-70
2022/03/20 10:28:36;;;;;;;25.93;16.30;;;9.80;1.00;;;;;;5102612;28;20197;-70
2022/03/20 10:31:05;;;;;;;21.23;11.83;;;10.10;1.00;;;;;;5106349;28;20196;-70
2022/03/20 10:33:33;;;;;;;22.90;13.27;;;9.90;1.00;;;;;;5103171;28;20309;-70
2022/03/20 10:36:09;;;;;;;25.03;15.80;;;10.10;1.00;;;;;;5104315;28;20638;-71
2022/03/20 10:38:38;;;;;;;23.63;15.90;;;10.10;1.00;;;;;;5103454;28;20550;-70
2022/03/20 10:41:20;;;;;;;25.93;15.87;;;10.40;1.00;;;;;;5106244;28;20223;-71
2022/03/20 10:43:48;;;;;;;24.20;14.53;;;10.40;1.00;;;;;;5107653;28;20214;-72
2022/03/20 10:46:19;;;;;;;22.23;13.47;;;10.40;1.00;;;;;;5105181;28;20205;-70
2022/03/20 10:48:48;;;;;;;24.33;14.23;;;10.10;1.00;;;;;;5103746;28;21104;-71
2022/03/20 10:51:25;;;;;;;22.83;14.80;;;10.60;1.00;;;;;;5108742;28;20698;-70
2022/03/20 10:53:55;;;;;;;25.80;15.13;;;10.90;1.00;;;;;;5102928;28;20233;-71
2022/03/20 10:56:21;;;;;;;23.43;14.53;;;10.90;1.00;;;;;;5109025;28;20201;-70
2022/03/20 10:58:49;;;;;;;26.17;15.03;;;10.70;1.00;;;;;;5104670;28;20211;-70
2022/03/20 11:01:17;;;;;;;23.50;14.60;;;10.80;1.00;;;;;;5101898;28;20262;-70
2022/03/20 11:03:46;;;;;;;28.93;15.47;;;11.10;1.00;;;;;;5105911;28;20288;-70
2022/03/20 11:06:15;;;;;;;25.57;14.50;;;11.00;1.00;;;;;;5105689;28;20687;-70
2022/03/20 11:08:42;;;;;;;25.07;15.77;;;11.20;1.00;;;;;;5104292;28;20570;-70
2022/03/20 11:11:12;;;;;;;23.60;14.50;;;11.40;1.00;;;;;;5104117;28;20197;-70
2022/03/20 11:13:45;;;;;;;26.00;12.90;;;11.20;1.00;;;;;;5109919;28;20316;-71
2022/03/20 11:16:13;;;;;;;26.07;15.73;;;11.20;1.00;;;;;;5083719;28;20215;-71
2022/03/20 11:18:44;;;;;;;23.43;13.93;;;11.40;1.00;;;;;;5111059;28;20200;-71
2022/03/20 11:21:11;;;;;;;21.53;13.80;;;11.70;1.00;;;;;;5098696;28;20284;-70
2022/03/20 11:23:39;;;;;;;22.33;12.37;;;11.40;1.00;;;;;;5104611;28;20221;-70
2022/03/20 11:26:09;;;;;;;21.67;13.27;;;11.40;1.00;;;;;;5108041;28;20204;-70
2022/03/20 11:28:45;;;;;;;25.60;13.80;;;11.60;1.00;;;;;;5107481;28;20209;-71
2022/03/20 11:31:15;;;;;;;25.40;14.43;;;11.90;1.00;;;;;;5098153;28;20205;-70
2022/03/20 11:33:44;;;;;;;22.73;13.23;;;12.30;1.00;;;;;;5104323;28;20220;-71
2022/03/20 11:36:12;;;;;;;22.90;13.30;;;11.70;1.00;;;;;;5104523;28;20212;-71
2022/03/20 11:38:40;;;;;;;23.83;14.50;;;11.60;1.00;;;;;;5108636;28;20198;-72
2022/03/20 11:41:10;;;;;;;22.60;14.77;;;11.90;1.00;;;;;;5104160;28;20205;-71
2022/03/20 11:43:39;;;;;;;21.83;13.60;;;12.10;1.00;;;;;;5095927;28;20578;-71
2022/03/20 11:46:18;;;;;;;20.77;13.03;;;11.90;1.00;;;;;;5107524;28;20261;-71
2022/03/20 11:49:06;;;;;;;22.17;14.77;;;11.90;1.00;;;;;;5097954;28;20659;-71
2022/03/20 11:51:52;;;;;;;22.17;13.90;;;12.60;1.00;;;;;;5102573;28;20297;-72
2022/03/20 11:54:19;;;;;;;20.90;14.27;;;12.40;1.00;;;;;;5099961;28;20235;-71
2022/03/20 11:56:48;;;;;;;23.53;14.10;;;12.40;1.00;;;;;;5098221;28;20293;-71
2022/03/20 11:59:46;;;;;;;23.50;14.20;;;12.80;1.00;;;;;;5101413;28;20243;-71
2022/03/20 12:02:15;;;;;;;21.50;14.47;;;12.60;1.00;;;;;;5101293;28;20205;-71
2022/03/20 12:04:57;;;;;;;20.33;13.20;;;12.50;1.00;;;;;;5103325;28;20205;-71
2022/03/20 12:07:31;;;;;;;21.37;13.43;;;12.60;1.00;;;;;;5097919;28;20208;-71
2022/03/20 12:10:06;;;;;;;21.80;14.00;;;12.90;1.00;;;;;;5105389;28;20211;-71
2022/03/20 12:12:44;;;;;;;21.10;13.17;;;13.00;1.00;;;;;;5101780;28;20224;-71
2022/03/20 12:15:13;;;;;;;21.43;13.50;;;12.50;1.00;;;;;;5101125;28;20583;-71
2022/03/20 12:18:00;;;;;;;21.53;13.93;;;12.50;1.00;;;;;;5103514;28;20566;-66
2022/03/20 12:21:04;;;;;;;20.60;13.27;;;12.90;1.00;;;;;;5098043;28;20212;-76
2022/03/20 12:23:39;;;;;;;20.67;12.00;;;12.50;1.00;;;;;;5103080;28;20248;-69
2022/03/20 12:26:33;;;;;;;20.53;12.83;;;12.50;1.00;;;;;;5104151;28;20209;-68
2022/03/20 12:29:34;;;;;;;19.93;13.00;;;12.40;1.00;;;;;;5103642;28;20207;-68
2022/03/20 12:32:06;;;;;;;21.87;15.03;;;12.70;1.00;;;;;;5100573;28;20241;-68
2022/03/20 12:34:34;;;;;;;23.83;14.17;;;12.80;1.00;;;;;;5097830;28;20230;-68
2022/03/20 12:37:40;;;;;;;23.83;14.17;;;12.90;1.00;;;;;;5102067;28;20193;-68
2022/03/20 12:40:18;;;;;;;21.17;13.77;;;13.00;1.00;;;;;;5080153;28;20713;-69
2022/03/20 12:42:56;;;;;;;20.20;14.10;;;13.20;1.00;;;;;;5107581;28;20637;-69
2022/03/20 12:45:23;;;;;;;23.23;14.27;;;12.70;1.00;;;;;;5097395;28;20617;-69
2022/03/20 12:47:57;;;;;;;22.80;14.37;;;12.60;1.00;;;;;;5104160;28;20285;-69
2022/03/20 12:50:26;;;;;;;21.50;12.77;;;12.90;1.00;;;;;;5104484;28;20211;-69
2022/03/20 12:53:05;;;;;;;21.43;13.70;;;12.70;1.00;;;;;;5100166;28;20531;-69
2022/03/20 12:55:32;;;;;;;21.87;13.37;;;12.70;1.00;;;;;;5105805;28;20200;-69
2022/03/20 12:57:58;;;;;;;20.43;13.77;;;12.80;1.00;;;;;;5101435;28;20567;-69
2022/03/20 13:00:27;;;;;;;20.17;13.57;;;12.80;1.00;;;;;;5101734;28;20197;-69
2022/03/20 13:03:06;;;;;;;23.50;12.23;;;12.80;1.00;;;;;;5100545;28;20538;-68
2022/03/20 13:05:34;;;;;;;20.80;13.17;;;12.60;1.00;;;;;;5101321;28;20200;-68
2022/03/20 13:08:01;;;;;;;22.40;12.30;;;12.80;1.00;;;;;;5099359;28;20581;-68
2022/03/20 13:10:38;;;;;;;19.17;12.13;;;12.60;1.00;;;;;;5100817;28;20419;-68
2022/03/20 13:13:06;;;;;;;20.67;14.07;;;12.50;1.00;;;;;;5097974;28;20523;-68
2022/03/20 13:15:35;;;;;;;21.50;13.43;;;13.00;1.00;;;;;;5098223;28;20201;-68
2022/03/20 13:18:05;;;;;;;19.77;12.43;;;13.00;1.00;;;;;;5100546;28;20667;-68
2022/03/20 13:20:33;;;;;;;21.20;14.17;;;13.00;1.00;;;;;;5101948;28;20648;-69